sensor_id;sensor_type;location;lat;lon;timestamp;P1;durP1;ratioP1;P2;durP2;ratioP2
28762;SDS011;15918;51.270;6.522;2022-10-17T00:01:08;8.18;;;6.40;;
28762;SDS011;15918;51.270;6.522;2022-10-17T00:03:34;8.07;;;5.53;;
28762;SDS011;15918;51.270;6.522;2022-10-17T00:06:04;8.68;;;5.13;;
28762;SDS011;15918;51.270;6.522;2022-10-17T00:08:35;8.52;;;5.63;;
28762;SDS011;15918;51.270;6.522;2022-10-17T00:11:02;8.18;;;5.70;;
28762;SDS011;15918;51.270;6.522;2022-10-17T00:13:30;7.40;;;5.93;;
28762;SDS011;15918;51.270;6.522;2022-10-17T00:15:57;5.82;;;5.10;;
28762;SDS011;15918;51.270;6.522;2022-10-17T00:18:24;8.73;;;5.90;;
28762;SDS011;15918;51.270;6.522;2022-10-17T00:20:49;11.40;;;5.28;;
28762;SDS011;15918;51.270;6.522;2022-10-17T00:23:15;7.38;;;5.57;;
28762;SDS011;15918;51.270;6.522;2022-10-17T00:25:41;6.68;;;5.20;;
28762;SDS011;15918;51.270;6.522;2022-10-17T00:28:11;9.13;;;6.30;;
28762;SDS011;15918;51.270;6.522;2022-10-17T00:30:37;9.18;;;6.10;;
28762;SDS011;15918;51.270;6.522;2022-10-17T00:33:03;7.32;;;5.00;;
28762;SDS011;15918;51.270;6.522;2022-10-17T00:35:29;6.00;;;4.97;;
28762;SDS011;15918;51.270;6.522;2022-10-17T00:37:55;5.85;;;5.05;;
28762;SDS011;15918;51.270;6.522;2022-10-17T00:40:20;8.07;;;5.40;;
28762;SDS011;15918;51.270;6.522;2022-10-17T00:42:46;9.07;;;5.45;;
28762;SDS011;15918;51.270;6.522;2022-10-17T00:45:22;7.07;;;5.57;;
28762;SDS011;15918;51.270;6.522;2022-10-17T00:47:54;9.18;;;5.82;;
28762;SDS011;15918;51.270;6.522;2022-10-17T00:50:32;9.32;;;5.45;;
28762;SDS011;15918;51.270;6.522;2022-10-17T00:53:00;8.30;;;5.50;;
28762;SDS011;15918;51.270;6.522;2022-10-17T00:55:29;7.13;;;5.53;;
28762;SDS011;15918;51.270;6.522;2022-10-17T00:57:57;6.85;;;6.15;;
28762;SDS011;15918;51.270;6.522;2022-10-17T01:00:26;6.43;;;5.75;;
28762;SDS011;15918;51.270;6.522;2022-10-17T01:02:52;8.63;;;6.05;;
28762;SDS011;15918;51.270;6.522;2022-10-17T01:05:17;6.20;;;5.63;;
28762;SDS011;15918;51.270;6.522;2022-10-17T01:07:43;7.00;;;6.05;;
28762;SDS011;15918;51.270;6.522;2022-10-17T01:10:11;7.90;;;5.50;;
28762;SDS011;15918;51.270;6.522;2022-10-17T01:12:40;6.32;;;5.70;;
28762;SDS011;15918;51.270;6.522;2022-10-17T01:23:53;6.88;;;5.53;;
28762;SDS011;15918;51.270;6.522;2022-10-17T01:32:36;7.53;;;6.22;;
28762;SDS011;15918;51.270;6.522;2022-10-17T01:35:37;7.93;;;6.32;;
28762;SDS011;15918;51.270;6.522;2022-10-17T01:40:36;7.18;;;5.68;;
28762;SDS011;15918;51.270;6.522;2022-10-17T01:48:06;7.13;;;5.70;;
28762;SDS011;15918;51.270;6.522;2022-10-17T01:50:40;6.45;;;5.60;;
28762;SDS011;15918;51.270;6.522;2022-10-17T01:53:12;9.00;;;6.15;;
28762;SDS011;15918;51.270;6.522;2022-10-17T01:55:43;5.93;;;5.43;;
28762;SDS011;15918;51.270;6.522;2022-10-17T01:58:20;6.40;;;5.80;;
28762;SDS011;15918;51.270;6.522;2022-10-17T02:00:49;11.07;;;6.43;;
28762;SDS011;15918;51.270;6.522;2022-10-17T02:03:17;7.05;;;5.97;;
28762;SDS011;15918;51.270;6.522;2022-10-17T02:05:45;10.23;;;6.40;;
28762;SDS011;15918;51.270;6.522;2022-10-17T02:08:11;8.45;;;6.15;;
28762;SDS011;15918;51.270;6.522;2022-10-17T02:10:50;8.48;;;5.63;;
28762;SDS011;15918;51.270;6.522;2022-10-17T02:16:26;7.05;;;5.43;;
28762;SDS011;15918;51.270;6.522;2022-10-17T02:26:55;9.77;;;6.55;;
28762;SDS011;15918;51.270;6.522;2022-10-17T02:29:57;6.10;;;5.60;;
28762;SDS011;15918;51.270;6.522;2022-10-17T02:32:37;10.15;;;6.15;;
28762;SDS011;15918;51.270;6.522;2022-10-17T02:35:26;11.25;;;6.68;;
28762;SDS011;15918;51.270;6.522;2022-10-17T02:37:56;7.00;;;5.90;;
28762;SDS011;15918;51.270;6.522;2022-10-17T02:40:23;11.63;;;7.30;;
28762;SDS011;15918;51.270;6.522;2022-10-17T02:42:51;6.95;;;6.25;;
28762;SDS011;15918;51.270;6.522;2022-10-17T02:45:19;13.00;;;6.47;;
28762;SDS011;15918;51.270;6.522;2022-10-17T02:47:58;6.90;;;6.20;;
28762;SDS011;15918;51.270;6.522;2022-10-17T02:53:30;12.27;;;6.38;;
28762;SDS011;15918;51.270;6.522;2022-10-17T02:56:03;6.40;;;5.78;;
28762;SDS011;15918;51.270;6.522;2022-10-17T02:58:36;9.00;;;6.28;;
28762;SDS011;15918;51.270;6.522;2022-10-17T03:01:03;10.43;;;6.65;;
28762;SDS011;15918;51.270;6.522;2022-10-17T03:03:30;12.80;;;7.07;;
28762;SDS011;15918;51.270;6.522;2022-10-17T03:05:56;8.68;;;6.05;;
28762;SDS011;15918;51.270;6.522;2022-10-17T03:08:22;8.82;;;6.57;;
28762;SDS011;15918;51.270;6.522;2022-10-17T03:10:49;9.45;;;6.63;;
28762;SDS011;15918;51.270;6.522;2022-10-17T03:13:15;9.55;;;6.45;;
28762;SDS011;15918;51.270;6.522;2022-10-17T03:15:41;8.40;;;6.90;;
28762;SDS011;15918;51.270;6.522;2022-10-17T03:18:07;7.85;;;6.55;;
28762;SDS011;15918;51.270;6.522;2022-10-17T03:20:33;8.65;;;6.10;;
28762;SDS011;15918;51.270;6.522;2022-10-17T03:22:58;8.75;;;6.93;;
28762;SDS011;15918;51.270;6.522;2022-10-17T03:25:24;7.35;;;6.40;;
28762;SDS011;15918;51.270;6.522;2022-10-17T03:27:50;7.25;;;6.63;;
28762;SDS011;15918;51.270;6.522;2022-10-17T03:30:16;8.95;;;6.70;;
28762;SDS011;15918;51.270;6.522;2022-10-17T03:32:42;7.38;;;6.43;;
28762;SDS011;15918;51.270;6.522;2022-10-17T03:35:07;7.70;;;6.90;;
28762;SDS011;15918;51.270;6.522;2022-10-17T03:37:33;7.43;;;6.60;;
28762;SDS011;15918;51.270;6.522;2022-10-17T03:39:58;9.40;;;6.07;;
28762;SDS011;15918;51.270;6.522;2022-10-17T03:42:24;10.70;;;6.72;;
28762;SDS011;15918;51.270;6.522;2022-10-17T03:44:50;6.85;;;6.07;;
28762;SDS011;15918;51.270;6.522;2022-10-17T03:47:15;10.50;;;6.57;;
28762;SDS011;15918;51.270;6.522;2022-10-17T03:49:41;7.00;;;6.28;;
28762;SDS011;15918;51.270;6.522;2022-10-17T03:52:10;9.57;;;6.32;;
28762;SDS011;15918;51.270;6.522;2022-10-17T03:54:36;9.23;;;6.28;;
28762;SDS011;15918;51.270;6.522;2022-10-17T03:57:02;8.70;;;6.68;;
28762;SDS011;15918;51.270;6.522;2022-10-17T03:59:28;8.32;;;6.40;;
28762;SDS011;15918;51.270;6.522;2022-10-17T04:01:53;8.15;;;6.50;;
28762;SDS011;15918;51.270;6.522;2022-10-17T04:04:19;9.77;;;6.55;;
28762;SDS011;15918;51.270;6.522;2022-10-17T04:06:45;10.38;;;7.05;;
28762;SDS011;15918;51.270;6.522;2022-10-17T04:09:10;9.65;;;6.90;;
28762;SDS011;15918;51.270;6.522;2022-10-17T04:11:36;12.88;;;6.72;;
28762;SDS011;15918;51.270;6.522;2022-10-17T04:14:01;7.80;;;6.60;;
28762;SDS011;15918;51.270;6.522;2022-10-17T04:16:27;8.43;;;7.35;;
28762;SDS011;15918;51.270;6.522;2022-10-17T04:18:54;8.20;;;7.03;;
28762;SDS011;15918;51.270;6.522;2022-10-17T04:21:21;11.27;;;6.10;;
28762;SDS011;15918;51.270;6.522;2022-10-17T04:23:51;10.32;;;7.00;;
28762;SDS011;15918;51.270;6.522;2022-10-17T04:26:26;8.70;;;6.40;;
28762;SDS011;15918;51.270;6.522;2022-10-17T04:28:52;7.80;;;6.43;;
28762;SDS011;15918;51.270;6.522;2022-10-17T04:31:17;8.57;;;6.93;;
28762;SDS011;15918;51.270;6.522;2022-10-17T04:33:45;10.43;;;6.85;;
28762;SDS011;15918;51.270;6.522;2022-10-17T04:36:12;9.15;;;6.70;;
28762;SDS011;15918;51.270;6.522;2022-10-17T04:38:39;9.38;;;7.28;;
28762;SDS011;15918;51.270;6.522;2022-10-17T04:41:06;8.60;;;6.85;;
28762;SDS011;15918;51.270;6.522;2022-10-17T04:43:35;9.35;;;6.53;;
28762;SDS011;15918;51.270;6.522;2022-10-17T04:46:03;11.35;;;7.32;;
28762;SDS011;15918;51.270;6.522;2022-10-17T04:48:30;12.88;;;6.80;;
28762;SDS011;15918;51.270;6.522;2022-10-17T04:51:06;12.48;;;7.40;;
28762;SDS011;15918;51.270;6.522;2022-10-17T04:53:36;7.43;;;6.72;;
28762;SDS011;15918;51.270;6.522;2022-10-17T04:56:07;9.73;;;7.45;;
28762;SDS011;15918;51.270;6.522;2022-10-17T04:58:38;12.50;;;8.23;;
28762;SDS011;15918;51.270;6.522;2022-10-17T05:01:05;8.25;;;7.03;;
28762;SDS011;15918;51.270;6.522;2022-10-17T05:03:35;9.13;;;7.28;;
28762;SDS011;15918;51.270;6.522;2022-10-17T05:06:11;12.13;;;8.15;;
28762;SDS011;15918;51.270;6.522;2022-10-17T05:08:39;11.45;;;7.25;;
28762;SDS011;15918;51.270;6.522;2022-10-17T05:11:05;7.95;;;6.47;;
28762;SDS011;15918;51.270;6.522;2022-10-17T05:13:44;8.50;;;6.75;;
28762;SDS011;15918;51.270;6.522;2022-10-17T05:16:13;13.45;;;7.05;;
28762;SDS011;15918;51.270;6.522;2022-10-17T05:18:38;8.95;;;6.82;;
28762;SDS011;15918;51.270;6.522;2022-10-17T05:21:04;8.40;;;6.68;;
28762;SDS011;15918;51.270;6.522;2022-10-17T05:23:30;10.57;;;6.53;;
28762;SDS011;15918;51.270;6.522;2022-10-17T05:25:55;9.45;;;7.07;;
28762;SDS011;15918;51.270;6.522;2022-10-17T05:28:21;9.77;;;6.88;;
28762;SDS011;15918;51.270;6.522;2022-10-17T05:30:47;11.02;;;7.45;;
28762;SDS011;15918;51.270;6.522;2022-10-17T05:33:13;11.77;;;6.90;;
28762;SDS011;15918;51.270;6.522;2022-10-17T05:35:39;9.52;;;7.03;;
28762;SDS011;15918;51.270;6.522;2022-10-17T05:38:05;10.63;;;7.18;;
28762;SDS011;15918;51.270;6.522;2022-10-17T05:40:30;9.05;;;6.60;;
28762;SDS011;15918;51.270;6.522;2022-10-17T05:42:56;9.32;;;6.63;;
28762;SDS011;15918;51.270;6.522;2022-10-17T05:45:22;9.52;;;7.10;;
28762;SDS011;15918;51.270;6.522;2022-10-17T05:47:47;12.77;;;7.75;;
28762;SDS011;15918;51.270;6.522;2022-10-17T05:50:13;9.02;;;7.97;;
28762;SDS011;15918;51.270;6.522;2022-10-17T05:52:39;8.95;;;7.47;;
28762;SDS011;15918;51.270;6.522;2022-10-17T05:55:04;8.50;;;7.07;;
28762;SDS011;15918;51.270;6.522;2022-10-17T05:57:31;12.98;;;7.47;;
28762;SDS011;15918;51.270;6.522;2022-10-17T05:59:57;10.07;;;7.63;;
28762;SDS011;15918;51.270;6.522;2022-10-17T06:02:22;13.00;;;8.25;;
28762;SDS011;15918;51.270;6.522;2022-10-17T06:04:48;9.23;;;7.30;;
28762;SDS011;15918;51.270;6.522;2022-10-17T06:07:14;11.88;;;7.43;;
28762;SDS011;15918;51.270;6.522;2022-10-17T06:09:40;13.45;;;8.05;;
28762;SDS011;15918;51.270;6.522;2022-10-17T06:12:06;8.52;;;7.63;;
28762;SDS011;15918;51.270;6.522;2022-10-17T06:14:32;8.70;;;6.55;;
28762;SDS011;15918;51.270;6.522;2022-10-17T06:16:58;10.18;;;7.70;;
28762;SDS011;15918;51.270;6.522;2022-10-17T06:19:25;9.73;;;7.90;;
28762;SDS011;15918;51.270;6.522;2022-10-17T06:21:50;12.25;;;8.35;;
28762;SDS011;15918;51.270;6.522;2022-10-17T06:24:16;13.38;;;8.43;;
28762;SDS011;15918;51.270;6.522;2022-10-17T06:26:44;8.95;;;7.70;;
28762;SDS011;15918;51.270;6.522;2022-10-17T06:29:11;13.07;;;8.68;;
28762;SDS011;15918;51.270;6.522;2022-10-17T06:31:40;11.45;;;7.50;;
28762;SDS011;15918;51.270;6.522;2022-10-17T06:34:05;11.77;;;8.02;;
28762;SDS011;15918;51.270;6.522;2022-10-17T06:36:31;12.57;;;8.75;;
28762;SDS011;15918;51.270;6.522;2022-10-17T06:38:56;9.77;;;8.13;;
28762;SDS011;15918;51.270;6.522;2022-10-17T06:41:22;10.93;;;7.88;;
28762;SDS011;15918;51.270;6.522;2022-10-17T06:43:48;12.65;;;7.60;;
28762;SDS011;15918;51.270;6.522;2022-10-17T06:46:14;9.40;;;7.50;;
28762;SDS011;15918;51.270;6.522;2022-10-17T06:48:41;10.57;;;8.10;;
28762;SDS011;15918;51.270;6.522;2022-10-17T06:51:07;8.85;;;6.95;;
28762;SDS011;15918;51.270;6.522;2022-10-17T06:53:36;11.05;;;8.15;;
28762;SDS011;15918;51.270;6.522;2022-10-17T06:56:03;9.35;;;7.32;;
28762;SDS011;15918;51.270;6.522;2022-10-17T06:58:32;11.68;;;8.00;;
28762;SDS011;15918;51.270;6.522;2022-10-17T07:01:03;14.25;;;7.60;;
28762;SDS011;15918;51.270;6.522;2022-10-17T07:03:30;10.18;;;8.55;;
28762;SDS011;15918;51.270;6.522;2022-10-17T07:05:56;9.23;;;7.38;;
28762;SDS011;15918;51.270;6.522;2022-10-17T07:08:22;15.05;;;8.75;;
28762;SDS011;15918;51.270;6.522;2022-10-17T07:10:49;9.30;;;7.90;;
28762;SDS011;15918;51.270;6.522;2022-10-17T07:13:15;14.40;;;8.25;;
28762;SDS011;15918;51.270;6.522;2022-10-17T07:15:41;10.77;;;7.57;;
28762;SDS011;15918;51.270;6.522;2022-10-17T07:18:07;12.45;;;8.23;;
28762;SDS011;15918;51.270;6.522;2022-10-17T07:20:32;9.38;;;8.45;;
28762;SDS011;15918;51.270;6.522;2022-10-17T07:22:58;12.55;;;7.95;;
28762;SDS011;15918;51.270;6.522;2022-10-17T07:25:24;14.40;;;8.32;;
28762;SDS011;15918;51.270;6.522;2022-10-17T07:27:50;8.60;;;7.15;;
28762;SDS011;15918;51.270;6.522;2022-10-17T07:30:17;12.73;;;8.60;;
28762;SDS011;15918;51.270;6.522;2022-10-17T07:32:43;11.52;;;7.57;;
28762;SDS011;15918;51.270;6.522;2022-10-17T07:35:09;10.02;;;7.80;;
28762;SDS011;15918;51.270;6.522;2022-10-17T07:37:35;12.50;;;8.55;;
28762;SDS011;15918;51.270;6.522;2022-10-17T07:40:02;11.25;;;8.20;;
28762;SDS011;15918;51.270;6.522;2022-10-17T07:42:30;12.25;;;8.20;;
28762;SDS011;15918;51.270;6.522;2022-10-17T07:44:56;13.57;;;8.15;;
28762;SDS011;15918;51.270;6.522;2022-10-17T07:47:22;10.23;;;7.50;;
28762;SDS011;15918;51.270;6.522;2022-10-17T07:49:47;8.15;;;6.53;;
28762;SDS011;15918;51.270;6.522;2022-10-17T07:52:13;9.85;;;7.10;;
28762;SDS011;15918;51.270;6.522;2022-10-17T07:54:40;8.48;;;7.22;;
28762;SDS011;15918;51.270;6.522;2022-10-17T07:57:06;9.45;;;7.50;;
28762;SDS011;15918;51.270;6.522;2022-10-17T07:59:32;9.82;;;8.02;;
28762;SDS011;15918;51.270;6.522;2022-10-17T08:01:59;10.27;;;7.28;;
28762;SDS011;15918;51.270;6.522;2022-10-17T08:04:25;10.80;;;7.43;;
28762;SDS011;15918;51.270;6.522;2022-10-17T08:06:51;9.45;;;7.30;;
28762;SDS011;15918;51.270;6.522;2022-10-17T08:09:17;13.50;;;7.22;;
28762;SDS011;15918;51.270;6.522;2022-10-17T08:11:42;9.38;;;7.63;;
28762;SDS011;15918;51.270;6.522;2022-10-17T08:14:08;13.02;;;8.63;;
28762;SDS011;15918;51.270;6.522;2022-10-17T08:16:35;9.63;;;8.57;;
28762;SDS011;15918;51.270;6.522;2022-10-17T08:19:01;13.48;;;7.70;;
28762;SDS011;15918;51.270;6.522;2022-10-17T08:21:27;9.40;;;7.20;;
28762;SDS011;15918;51.270;6.522;2022-10-17T08:23:53;10.20;;;7.25;;
28762;SDS011;15918;51.270;6.522;2022-10-17T08:26:19;8.70;;;7.32;;
28762;SDS011;15918;51.270;6.522;2022-10-17T08:28:44;10.10;;;6.85;;
28762;SDS011;15918;51.270;6.522;2022-10-17T08:31:12;9.02;;;6.47;;
28762;SDS011;15918;51.270;6.522;2022-10-17T08:33:40;15.75;;;7.50;;
28762;SDS011;15918;51.270;6.522;2022-10-17T08:36:06;11.73;;;6.82;;
28762;SDS011;15918;51.270;6.522;2022-10-17T08:38:33;12.95;;;7.40;;
28762;SDS011;15918;51.270;6.522;2022-10-17T08:41:03;15.05;;;7.32;;
28762;SDS011;15918;51.270;6.522;2022-10-17T08:46:15;9.70;;;6.78;;
28762;SDS011;15918;51.270;6.522;2022-10-17T08:48:42;9.35;;;7.30;;
28762;SDS011;15918;51.270;6.522;2022-10-17T08:51:20;9.73;;;7.53;;
28762;SDS011;15918;51.270;6.522;2022-10-17T08:53:52;9.32;;;6.68;;
28762;SDS011;15918;51.270;6.522;2022-10-17T08:56:52;16.63;;;7.82;;
28762;SDS011;15918;51.270;6.522;2022-10-17T08:59:19;11.15;;;6.68;;
28762;SDS011;15918;51.270;6.522;2022-10-17T09:07:44;13.48;;;7.25;;
28762;SDS011;15918;51.270;6.522;2022-10-17T09:10:49;10.18;;;7.03;;
28762;SDS011;15918;51.270;6.522;2022-10-17T09:16:27;8.70;;;6.88;;
28762;SDS011;15918;51.270;6.522;2022-10-17T09:19:15;12.10;;;7.70;;
28762;SDS011;15918;51.270;6.522;2022-10-17T09:21:48;15.82;;;6.97;;
28762;SDS011;15918;51.270;6.522;2022-10-17T09:24:27;9.23;;;7.47;;
28762;SDS011;15918;51.270;6.522;2022-10-17T09:26:54;8.25;;;7.10;;
28762;SDS011;15918;51.270;6.522;2022-10-17T09:29:21;11.23;;;7.18;;
28762;SDS011;15918;51.270;6.522;2022-10-17T09:34:46;7.45;;;6.53;;
28762;SDS011;15918;51.270;6.522;2022-10-17T09:37:13;9.93;;;6.60;;
28762;SDS011;15918;51.270;6.522;2022-10-17T09:39:40;14.63;;;7.53;;
28762;SDS011;15918;51.270;6.522;2022-10-17T09:42:09;13.93;;;7.15;;
28762;SDS011;15918;51.270;6.522;2022-10-17T09:45:23;10.40;;;6.90;;
28762;SDS011;15918;51.270;6.522;2022-10-17T09:47:41;10.25;;;6.95;;
28762;SDS011;15918;51.270;6.522;2022-10-17T09:50:29;12.00;;;7.03;;
28762;SDS011;15918;51.270;6.522;2022-10-17T09:53:13;11.65;;;7.47;;
28762;SDS011;15918;51.270;6.522;2022-10-17T09:55:48;7.20;;;6.45;;
28762;SDS011;15918;51.270;6.522;2022-10-17T09:58:19;10.27;;;6.10;;
28762;SDS011;15918;51.270;6.522;2022-10-17T10:00:45;13.55;;;6.90;;
28762;SDS011;15918;51.270;6.522;2022-10-17T10:03:20;10.10;;;7.38;;
28762;SDS011;15918;51.270;6.522;2022-10-17T10:08:51;7.70;;;6.85;;
28762;SDS011;15918;51.270;6.522;2022-10-17T10:11:23;11.13;;;6.60;;
28762;SDS011;15918;51.270;6.522;2022-10-17T10:13:50;15.70;;;7.80;;
28762;SDS011;15918;51.270;6.522;2022-10-17T10:16:29;11.77;;;6.97;;
28762;SDS011;15918;51.270;6.522;2022-10-17T10:18:57;12.20;;;7.15;;
28762;SDS011;15918;51.270;6.522;2022-10-17T10:21:24;9.95;;;7.22;;
28762;SDS011;15918;51.270;6.522;2022-10-17T10:26:45;15.00;;;7.60;;
28762;SDS011;15918;51.270;6.522;2022-10-17T10:31:46;13.63;;;7.90;;
28762;SDS011;15918;51.270;6.522;2022-10-17T10:36:49;9.02;;;7.03;;
28762;SDS011;15918;51.270;6.522;2022-10-17T10:39:25;10.05;;;6.68;;
28762;SDS011;15918;51.270;6.522;2022-10-17T10:41:59;10.52;;;6.72;;
28762;SDS011;15918;51.270;6.522;2022-10-17T10:44:26;12.55;;;7.07;;
28762;SDS011;15918;51.270;6.522;2022-10-17T10:47:07;9.82;;;6.85;;
28762;SDS011;15918;51.270;6.522;2022-10-17T10:49:39;12.05;;;6.80;;
28762;SDS011;15918;51.270;6.522;2022-10-17T10:52:06;9.57;;;6.70;;
28762;SDS011;15918;51.270;6.522;2022-10-17T10:54:40;10.90;;;6.78;;
28762;SDS011;15918;51.270;6.522;2022-10-17T10:57:15;7.20;;;6.50;;
28762;SDS011;15918;51.270;6.522;2022-10-17T11:02:43;11.80;;;7.35;;
28762;SDS011;15918;51.270;6.522;2022-10-17T11:05:33;12.45;;;7.50;;
28762;SDS011;15918;51.270;6.522;2022-10-17T11:08:04;12.30;;;7.68;;
28762;SDS011;15918;51.270;6.522;2022-10-17T11:10:52;13.23;;;8.48;;
28762;SDS011;15918;51.270;6.522;2022-10-17T11:13:30;10.52;;;6.85;;
28762;SDS011;15918;51.270;6.522;2022-10-17T11:16:14;10.48;;;7.57;;
28762;SDS011;15918;51.270;6.522;2022-10-17T11:19:10;8.75;;;7.45;;
28762;SDS011;15918;51.270;6.522;2022-10-17T11:21:58;9.85;;;6.63;;
28762;SDS011;15918;51.270;6.522;2022-10-17T11:24:57;8.40;;;6.88;;
28762;SDS011;15918;51.270;6.522;2022-10-17T11:27:28;10.23;;;7.07;;
28762;SDS011;15918;51.270;6.522;2022-10-17T11:29:54;8.40;;;7.05;;
28762;SDS011;15918;51.270;6.522;2022-10-17T11:37:50;11.23;;;6.70;;
28762;SDS011;15918;51.270;6.522;2022-10-17T11:40:32;11.15;;;6.28;;
28762;SDS011;15918;51.270;6.522;2022-10-17T11:43:14;7.57;;;6.43;;
28762;SDS011;15918;51.270;6.522;2022-10-17T11:45:47;10.53;;;6.70;;
28762;SDS011;15918;51.270;6.522;2022-10-17T11:48:28;10.43;;;6.75;;
28762;SDS011;15918;51.270;6.522;2022-10-17T11:51:03;16.60;;;7.63;;
28762;SDS011;15918;51.270;6.522;2022-10-17T11:54:16;7.37;;;6.20;;
28762;SDS011;15918;51.270;6.522;2022-10-17T11:56:37;10.85;;;7.00;;
28762;SDS011;15918;51.270;6.522;2022-10-17T11:59:41;11.77;;;7.22;;
28762;SDS011;15918;51.270;6.522;2022-10-17T12:13:53;10.77;;;7.35;;
28762;SDS011;15918;51.270;6.522;2022-10-17T12:19:32;12.85;;;7.22;;
28762;SDS011;15918;51.270;6.522;2022-10-17T12:32:36;10.10;;;6.93;;
28762;SDS011;15918;51.270;6.522;2022-10-17T12:35:20;10.77;;;7.47;;
28762;SDS011;15918;51.270;6.522;2022-10-17T12:43:46;12.77;;;6.47;;
28762;SDS011;15918;51.270;6.522;2022-10-17T12:46:00;9.75;;;6.80;;
28762;SDS011;15918;51.270;6.522;2022-10-17T12:51:04;8.35;;;7.15;;
28762;SDS011;15918;51.270;6.522;2022-10-17T12:56:36;12.30;;;7.70;;
28762;SDS011;15918;51.270;6.522;2022-10-17T12:59:27;12.15;;;7.43;;
28762;SDS011;15918;51.270;6.522;2022-10-17T13:01:54;11.98;;;7.80;;
28762;SDS011;15918;51.270;6.522;2022-10-17T13:04:23;13.43;;;7.63;;
28762;SDS011;15918;51.270;6.522;2022-10-17T13:06:51;11.98;;;8.27;;
28762;SDS011;15918;51.270;6.522;2022-10-17T13:12:02;10.50;;;6.72;;
28762;SDS011;15918;51.270;6.522;2022-10-17T13:14:30;9.80;;;7.10;;
28762;SDS011;15918;51.270;6.522;2022-10-17T13:16:58;10.20;;;6.53;;
28762;SDS011;15918;51.270;6.522;2022-10-17T13:19:30;12.70;;;7.78;;
28762;SDS011;15918;51.270;6.522;2022-10-17T13:22:09;11.60;;;6.13;;
28762;SDS011;15918;51.270;6.522;2022-10-17T13:24:40;12.68;;;6.18;;
28762;SDS011;15918;51.270;6.522;2022-10-17T13:27:28;13.18;;;6.22;;
28762;SDS011;15918;51.270;6.522;2022-10-17T13:29:54;12.75;;;5.40;;
28762;SDS011;15918;51.270;6.522;2022-10-17T13:32:22;9.93;;;6.28;;
28762;SDS011;15918;51.270;6.522;2022-10-17T13:37:50;9.45;;;5.18;;
28762;SDS011;15918;51.270;6.522;2022-10-17T13:40:17;8.80;;;5.75;;
28762;SDS011;15918;51.270;6.522;2022-10-17T13:42:48;9.30;;;6.03;;
28762;SDS011;15918;51.270;6.522;2022-10-17T13:45:26;11.65;;;5.63;;
28762;SDS011;15918;51.270;6.522;2022-10-17T13:47:59;7.35;;;5.35;;
28762;SDS011;15918;51.270;6.522;2022-10-17T13:53:14;10.15;;;5.75;;
28762;SDS011;15918;51.270;6.522;2022-10-17T13:56:00;10.95;;;5.45;;
28762;SDS011;15918;51.270;6.522;2022-10-17T13:58:29;10.80;;;5.90;;
28762;SDS011;15918;51.270;6.522;2022-10-17T14:01:03;10.07;;;5.68;;
28762;SDS011;15918;51.270;6.522;2022-10-17T14:03:29;10.85;;;5.75;;
28762;SDS011;15918;51.270;6.522;2022-10-17T14:06:05;12.18;;;6.22;;
28762;SDS011;15918;51.270;6.522;2022-10-17T14:09:03;9.23;;;5.55;;
28762;SDS011;15918;51.270;6.522;2022-10-17T14:11:32;12.18;;;5.20;;
28762;SDS011;15918;51.270;6.522;2022-10-17T14:13:59;9.73;;;5.25;;
28762;SDS011;15918;51.270;6.522;2022-10-17T14:16:31;8.73;;;5.15;;
28762;SDS011;15918;51.270;6.522;2022-10-17T14:19:03;13.32;;;6.35;;
28762;SDS011;15918;51.270;6.522;2022-10-17T14:21:30;11.38;;;5.45;;
28762;SDS011;15918;51.270;6.522;2022-10-17T14:24:14;9.25;;;5.63;;
28762;SDS011;15918;51.270;6.522;2022-10-17T14:26:47;10.20;;;5.80;;
28762;SDS011;15918;51.270;6.522;2022-10-17T14:29:20;11.93;;;5.25;;
28762;SDS011;15918;51.270;6.522;2022-10-17T14:31:49;9.80;;;5.47;;
28762;SDS011;15918;51.270;6.522;2022-10-17T14:34:23;9.82;;;5.15;;
28762;SDS011;15918;51.270;6.522;2022-10-17T14:36:53;12.65;;;5.60;;
28762;SDS011;15918;51.270;6.522;2022-10-17T14:39:19;7.40;;;5.45;;
28762;SDS011;15918;51.270;6.522;2022-10-17T14:41:48;11.68;;;5.60;;
28762;SDS011;15918;51.270;6.522;2022-10-17T14:44:25;9.45;;;5.88;;
28762;SDS011;15918;51.270;6.522;2022-10-17T14:46:54;10.95;;;5.88;;
28762;SDS011;15918;51.270;6.522;2022-10-17T14:54:41;13.40;;;6.65;;
28762;SDS011;15918;51.270;6.522;2022-10-17T14:57:25;16.73;;;7.28;;
28762;SDS011;15918;51.270;6.522;2022-10-17T14:59:57;11.05;;;6.85;;
28762;SDS011;15918;51.270;6.522;2022-10-17T15:02:23;9.85;;;6.28;;
28762;SDS011;15918;51.270;6.522;2022-10-17T15:04:50;14.38;;;6.75;;
28762;SDS011;15918;51.270;6.522;2022-10-17T15:07:16;11.18;;;6.70;;
28762;SDS011;15918;51.270;6.522;2022-10-17T15:09:42;12.63;;;7.00;;
28762;SDS011;15918;51.270;6.522;2022-10-17T15:12:16;14.25;;;7.13;;
28762;SDS011;15918;51.270;6.522;2022-10-17T15:14:43;13.02;;;6.90;;
28762;SDS011;15918;51.270;6.522;2022-10-17T15:17:14;9.10;;;6.70;;
28762;SDS011;15918;51.270;6.522;2022-10-17T15:19:42;10.05;;;6.60;;
28762;SDS011;15918;51.270;6.522;2022-10-17T15:22:08;13.05;;;6.80;;
28762;SDS011;15918;51.270;6.522;2022-10-17T15:24:34;11.68;;;6.68;;
28762;SDS011;15918;51.270;6.522;2022-10-17T15:26:59;10.68;;;7.47;;
28762;SDS011;15918;51.270;6.522;2022-10-17T15:29:25;8.40;;;7.50;;
28762;SDS011;15918;51.270;6.522;2022-10-17T15:31:51;11.45;;;7.22;;
28762;SDS011;15918;51.270;6.522;2022-10-17T15:34:16;14.18;;;7.90;;
28762;SDS011;15918;51.270;6.522;2022-10-17T15:36:47;12.98;;;8.43;;
28762;SDS011;15918;51.270;6.522;2022-10-17T15:39:14;11.13;;;7.95;;
28762;SDS011;15918;51.270;6.522;2022-10-17T15:41:40;10.32;;;7.60;;
28762;SDS011;15918;51.270;6.522;2022-10-17T15:44:06;10.15;;;8.27;;
28762;SDS011;15918;51.270;6.522;2022-10-17T15:46:32;10.35;;;7.55;;
28762;SDS011;15918;51.270;6.522;2022-10-17T15:49:03;10.63;;;7.20;;
28762;SDS011;15918;51.270;6.522;2022-10-17T15:51:31;11.45;;;7.63;;
28762;SDS011;15918;51.270;6.522;2022-10-17T15:53:57;11.82;;;7.32;;
28762;SDS011;15918;51.270;6.522;2022-10-17T15:56:27;12.85;;;7.85;;
28762;SDS011;15918;51.270;6.522;2022-10-17T15:58:55;7.97;;;6.93;;
28762;SDS011;15918;51.270;6.522;2022-10-17T16:01:22;11.52;;;7.85;;
28762;SDS011;15918;51.270;6.522;2022-10-17T16:03:50;13.10;;;7.75;;
28762;SDS011;15918;51.270;6.522;2022-10-17T16:06:17;11.68;;;8.10;;
28762;SDS011;15918;51.270;6.522;2022-10-17T16:08:47;9.77;;;7.13;;
28762;SDS011;15918;51.270;6.522;2022-10-17T16:11:16;9.70;;;7.45;;
28762;SDS011;15918;51.270;6.522;2022-10-17T16:14:03;14.00;;;7.82;;
28762;SDS011;15918;51.270;6.522;2022-10-17T16:16:31;10.00;;;7.50;;
28762;SDS011;15918;51.270;6.522;2022-10-17T16:18:57;9.70;;;7.32;;
28762;SDS011;15918;51.270;6.522;2022-10-17T16:21:27;14.13;;;7.72;;
28762;SDS011;15918;51.270;6.522;2022-10-17T16:23:54;12.63;;;7.40;;
28762;SDS011;15918;51.270;6.522;2022-10-17T16:26:20;9.68;;;6.63;;
28762;SDS011;15918;51.270;6.522;2022-10-17T16:28:46;9.15;;;6.18;;
28762;SDS011;15918;51.270;6.522;2022-10-17T16:31:22;15.23;;;7.07;;
28762;SDS011;15918;51.270;6.522;2022-10-17T16:33:53;8.82;;;6.38;;
28762;SDS011;15918;51.270;6.522;2022-10-17T16:36:20;10.93;;;6.80;;
28762;SDS011;15918;51.270;6.522;2022-10-17T16:38:46;10.60;;;5.80;;
28762;SDS011;15918;51.270;6.522;2022-10-17T16:41:24;6.80;;;5.40;;
28762;SDS011;15918;51.270;6.522;2022-10-17T16:43:54;7.80;;;6.05;;
28762;SDS011;15918;51.270;6.522;2022-10-17T16:46:21;11.73;;;6.32;;
28762;SDS011;15918;51.270;6.522;2022-10-17T16:48:48;9.18;;;5.40;;
28762;SDS011;15918;51.270;6.522;2022-10-17T16:51:15;9.82;;;5.75;;
28762;SDS011;15918;51.270;6.522;2022-10-17T16:53:43;5.82;;;5.22;;
28762;SDS011;15918;51.270;6.522;2022-10-17T16:56:13;6.25;;;4.93;;
28762;SDS011;15918;51.270;6.522;2022-10-17T16:58:41;5.15;;;4.47;;